Terminal Aerodrome Forecast
Issued by NWS Sterling, VA

Home | Current Version | Previous Version | Text Only | Print | Product List | Glossary On
Versions: 1 2 3 4 5 6 7 8 9 10 11 12 13 14 15 16 17
004
FTUS41 KLWX 120528
TAFMRB
TAF
KMRB 120528Z 1206/1306 28005KT P6SM FEW250
     FM121200 21004KT P6SM BKN200
     FM122000 21007KT 3SM -SHSN BKN050
     FM122300 24005KT 5SM -SHSN OVC045
     FM130200 27005KT P6SM BKN045
     FM130500 29009KT P6SM BKN040=

USA.gov is the U.S. government's official web portal to all federal, state and local government web resources and services.